Weather at Fort Resolution Airport

Public forecast

Using degrees Celsius for public forecast. Weather courtesy of forecast.io.

Current aviation weather report (METAR) for Fort Resolution Airport

Report is more than 6 hours old.

Retrieved 2021/04/09 22:00 UTC (1 day ago):

CYFR 092200Z 05010G18KT 020V080 3SM -SN BLSN OVC030 M06/M10 A2979 RMK SC8 LAST STFD OBS/NEXT121400Z SLP104

Closest aviation forecast (TAF) to Fort Resolution Airport

Closest forecast is Hay River / Merlyn Carter Airport, 64.3 nm (119.0 km) WSW. Retrieved 2021/04/11 06:39 UTC (8 minutes ago):

TAF CYHY 110538Z 1106/1118 VRB03KT P6SM SCT100 FM110800 10005KT P6SM FEW040 BKN080 FM111200 10005KT P6SM SCT030 BKN060 TEMPO 1112/1118 4SM -SN BKN030 OVC060 RMK NXT FCST BY 111200Z